Time;durP1;ratioP1;P1;durP2;ratioP2;P2;SDS_P1;SDS_P2;PMS_P1;PMS_P2;Temp;Humidity;BMP_temperature;BMP_pressure;BME280_temperature;BME280_humidity;BME280_pressure;Samples;Min_cycle;Max_cycle;Signal;HPM_P1;HPM_P2
2023/03/29 00:01:15;;;;;;;2.93;2.73;;;;;;;12.55;47.84;99171.47;7080710;27;20364;-77
2023/03/29 00:04:37;;;;;;;3.23;2.93;;;;;;;12.38;48.43;99135.06;7081430;27;20634;-76
2023/03/29 00:08:02;;;;;;;3.53;3.27;;;;;;;12.65;48.39;99166.47;7080650;27;20204;-77
2023/03/29 00:11:24;;;;;;;4.90;4.50;;;;;;;12.39;49.88;99152.94;7055923;27;20197;-76
2023/03/29 00:14:46;;;;;;;3.57;3.20;;;;;;;12.34;49.96;99162.75;7052793;28;20292;-75
2023/03/29 00:18:09;;;;;;;3.80;3.13;;;;;;;12.19;50.85;99159.38;7052427;28;20289;-75
2023/03/29 00:21:31;;;;;;;4.27;3.00;;;;;;;12.22;51.31;99164.41;7052071;28;20592;-75
2023/03/29 00:24:53;;;;;;;4.53;3.30;;;;;;;12.17;51.21;99156.06;7052727;28;20208;-75
2023/03/29 00:28:14;;;;;;;3.87;3.47;;;;;;;12.03;51.71;99167.91;7052802;28;20230;-75
2023/03/29 00:31:36;;;;;;;7.87;4.30;;;;;;;12.08;51.89;99154.59;7051747;28;20596;-75
2023/03/29 00:34:59;;;;;;;17.83;8.43;;;;;;;11.95;52.17;99136.50;7051844;28;20208;-76
2023/03/29 00:38:21;;;;;;;15.03;6.80;;;;;;;11.96;52.31;99150.81;7053658;27;20227;-77
2023/03/29 00:41:44;;;;;;;5.03;3.97;;;;;;;12.10;51.62;99145.25;7051091;28;20208;-75
2023/03/29 00:45:17;;;;;;;7.90;4.50;;;;;;;11.96;52.71;99143.56;7052403;28;20257;-75
2023/03/29 00:48:39;;;;;;;19.60;8.90;;;;;;;11.97;52.61;99142.53;7052188;28;20184;-75
2023/03/29 00:52:02;;;;;;;28.23;10.37;;;;;;;11.84;53.30;99147.06;7051294;28;20288;-75
2023/03/29 00:55:25;;;;;;;37.77;12.43;;;;;;;11.96;52.33;99140.03;7052175;28;20215;-78
2023/03/29 00:58:50;;;;;;;6.63;4.23;;;;;;;11.97;51.91;99133.56;7051981;28;20224;-75
2023/03/29 01:02:12;;;;;;;3.57;3.27;;;;;;;12.05;51.04;99130.69;7051270;28;20230;-77
2023/03/29 01:05:38;;;;;;;3.93;3.63;;;;;;;12.00;51.32;99131.31;7052046;28;20204;-77
2023/03/29 01:09:06;;;;;;;3.80;3.43;;;;;;;11.95;51.83;99123.00;7054556;27;20183;-74
2023/03/29 01:12:29;;;;;;;3.73;3.03;;;;;;;11.84;52.27;99122.75;7079798;28;20588;-75
2023/03/29 01:15:52;;;;;;;5.27;4.07;;;;;;;11.71;52.83;99104.66;7080326;28;20263;-75
2023/03/29 01:19:16;;;;;;;5.43;3.70;;;;;;;11.63;53.37;99102.13;7080337;28;20224;-75
2023/03/29 01:22:43;;;;;;;7.87;4.80;;;;;;;11.44;52.86;99102.91;7079463;28;20590;-75
2023/03/29 01:26:12;;;;;;;4.37;3.40;;;;;;;11.37;52.73;99098.50;7080168;28;20559;-75
2023/03/29 01:29:37;;;;;;;3.70;3.30;;;;;;;11.58;52.11;99074.91;7079862;28;20549;-75
2023/03/29 01:33:02;;;;;;;4.30;3.90;;;;;;;11.73;51.46;99069.31;7079497;28;20276;-75
2023/03/29 01:36:27;;;;;;;4.43;3.97;;;;;;;11.68;51.69;99050.22;7080344;28;20706;-75
2023/03/29 01:39:48;;;;;;;5.33;3.60;;;;;;;11.93;51.17;99052.09;7079401;28;20586;-74
2023/03/29 01:43:16;;;;;;;3.70;3.30;;;;;;;11.68;53.14;99051.03;7079368;28;20219;-74
2023/03/29 01:46:44;;;;;;;4.00;3.30;;;;;;;11.67;53.24;99054.78;7082581;27;20203;-75
2023/03/29 01:50:11;;;;;;;5.03;3.73;;;;;;;11.43;53.69;99049.94;7084305;27;20186;-75
2023/03/29 01:53:38;;;;;;;4.10;3.70;;;;;;;11.69;53.12;99052.69;7084470;27;20288;-74
2023/03/29 01:57:02;;;;;;;4.30;3.80;;;;;;;11.47;53.75;99035.00;7085122;27;20199;-74
2023/03/29 02:00:26;;;;;;;4.03;3.63;;;;;;;11.21;53.39;99034.13;7083679;27;20234;-76
2023/03/29 02:03:53;;;;;;;4.10;3.70;;;;;;;11.27;53.70;99031.41;7084663;27;20227;-74
2023/03/29 02:07:15;;;;;;;3.50;3.20;;;;;;;10.44;55.00;99032.72;7084825;27;20650;-74
2023/03/29 02:10:37;;;;;;;3.37;3.00;;;;;;;10.88;54.01;99020.50;7083873;27;20203;-74
2023/03/29 02:13:59;;;;;;;3.30;3.00;;;;;;;10.77;54.00;99004.06;7084304;27;20312;-75
2023/03/29 02:17:22;;;;;;;4.07;3.40;;;;;;;10.60;53.72;98997.34;7084272;27;20207;-75
2023/03/29 02:20:47;;;;;;;3.80;3.50;;;;;;;10.76;53.18;99007.81;7083608;27;20207;-74
2023/03/29 02:24:10;;;;;;;2.83;2.63;;;;;;;10.94;52.33;99000.81;7083885;27;20308;-75
2023/03/29 02:27:32;;;;;;;3.17;2.90;;;;;;;11.54;51.80;98989.94;7083724;27;20220;-74
2023/03/29 02:30:56;;;;;;;3.60;3.00;;;;;;;11.65;51.05;99019.06;7083369;27;20297;-75
2023/03/29 02:34:21;;;;;;;3.10;2.80;;;;;;;11.99;50.69;99004.50;7083969;27;20231;-74
2023/03/29 02:37:46;;;;;;;3.50;3.20;;;;;;;11.71;51.61;98995.78;7083698;27;20218;-75
2023/03/29 02:41:09;;;;;;;3.57;3.10;;;;;;;11.94;50.69;98983.53;7083003;27;20271;-74
2023/03/29 02:44:32;;;;;;;4.03;2.97;;;;;;;11.24;51.80;98988.66;7083575;27;20756;-74
2023/03/29 02:47:55;;;;;;;3.33;2.93;;;;;;;11.10;52.71;98992.34;7083335;27;20203;-75
2023/03/29 02:51:20;;;;;;;4.37;3.63;;;;;;;11.90;49.94;98976.03;7082175;27;20258;-76
2023/03/29 02:54:44;;;;;;;3.67;2.60;;;;;;;11.03;51.80;98961.00;7083188;27;20287;-77
2023/03/29 02:58:06;;;;;;;4.80;2.93;;;;;;;11.37;50.19;98941.94;7082535;27;20615;-75
2023/03/29 03:01:28;;;;;;;2.80;2.60;;;;;;;11.73;49.05;98939.69;7082637;27;20196;-75
2023/03/29 03:04:50;;;;;;;3.37;3.07;;;;;;;12.03;48.78;98946.31;7082439;27;20231;-75
2023/03/29 03:08:12;;;;;;;4.70;3.27;;;;;;;11.74;48.72;98938.66;7077393;27;20207;-74
2023/03/29 03:11:35;;;;;;;5.87;3.33;;;;;;;11.95;48.96;98933.84;7062192;27;20200;-75
2023/03/29 03:14:57;;;;;;;3.50;3.20;;;;;;;11.81;49.88;98936.78;7054293;28;20681;-75
2023/03/29 03:18:18;;;;;;;3.93;3.60;;;;;;;11.46;51.53;98932.59;7054262;28;20228;-75
2023/03/29 03:21:40;;;;;;;5.87;3.37;;;;;;;10.96;53.02;98931.31;7053271;28;20213;-75
2023/03/29 03:25:01;;;;;;;3.57;3.27;;;;;;;11.49;50.43;98921.38;7054554;28;20253;-75
2023/03/29 03:28:26;;;;;;;5.23;3.13;;;;;;;11.24;50.27;98931.13;7054127;28;20643;-75
2023/03/29 03:31:47;;;;;;;6.23;3.67;;;;;;;11.50;50.24;98933.84;7052675;28;20208;-75
2023/03/29 03:35:10;;;;;;;5.03;3.27;;;;;;;11.55;51.42;98936.75;7053234;28;20212;-75
2023/03/29 03:38:32;;;;;;;3.07;2.77;;;;;;;11.53;50.41;98923.47;7053204;28;20228;-75
2023/03/29 03:41:53;;;;;;;3.43;3.13;;;;;;;11.85;49.02;98938.00;7052604;28;20303;-75
2023/03/29 03:45:16;;;;;;;4.53;3.27;;;;;;;11.62;50.05;98921.44;7053146;28;20204;-75
2023/03/29 03:48:38;;;;;;;3.43;2.63;;;;;;;11.80;49.94;98911.63;7054167;28;20204;-75
2023/03/29 03:51:59;;;;;;;4.20;3.07;;;;;;;11.60;50.01;98923.47;7052348;28;20227;-76
2023/03/29 03:55:21;;;;;;;3.57;3.17;;;;;;;11.98;48.90;98924.50;7052901;28;20251;-75
2023/03/29 03:58:43;;;;;;;3.43;3.13;;;;;;;11.97;48.90;98920.09;7052678;28;20257;-75
2023/03/29 04:02:06;;;;;;;3.73;3.33;;;;;;;12.07;49.18;98920.50;7051743;28;20273;-75
2023/03/29 04:05:28;;;;;;;3.50;3.20;;;;;;;12.39;48.16;98916.88;7052863;28;20200;-76
2023/03/29 04:08:49;;;;;;;3.47;3.17;;;;;;;12.14;49.33;98914.06;7052764;28;20208;-76
2023/03/29 04:12:11;;;;;;;3.37;3.07;;;;;;;12.05;49.37;98926.13;7051805;28;20372;-76
2023/03/29 04:15:34;;;;;;;3.20;2.90;;;;;;;12.15;49.00;98931.09;7051933;28;20565;-76
2023/03/29 04:18:56;;;;;;;4.13;3.10;;;;;;;11.95;49.52;98925.75;7052179;28;20229;-76
2023/03/29 04:22:18;;;;;;;3.33;2.97;;;;;;;12.15;48.81;98939.22;7054639;27;20283;-75
2023/03/29 04:25:40;;;;;;;6.73;3.33;;;;;;;11.45;50.58;98931.75;7080327;27;20638;-74
2023/03/29 04:29:01;;;;;;;3.20;2.90;;;;;;;10.74;52.15;98932.47;7080281;27;20204;-75
2023/03/29 04:32:23;;;;;;;3.33;3.03;;;;;;;11.73;50.05;98929.72;7079695;27;20248;-76
2023/03/29 04:35:46;;;;;;;3.27;2.90;;;;;;;12.27;48.49;98932.94;7080067;27;20227;-75
2023/03/29 04:39:08;;;;;;;3.47;3.17;;;;;;;12.14;48.73;98888.88;7077597;27;20227;-77
2023/03/29 04:42:31;;;;;;;3.57;3.23;;;;;;;11.97;50.34;98933.63;7076703;27;20707;-76
2023/03/29 04:45:52;;;;;;;5.40;3.10;;;;;;;11.92;51.01;98923.44;7080331;27;20211;-77
2023/03/29 04:49:15;;;;;;;4.50;3.13;;;;;;;12.47;51.24;98943.69;7080140;27;20224;-75
2023/03/29 04:52:38;;;;;;;6.53;3.20;;;;;;;12.55;50.54;98943.44;7079110;28;20368;-75
2023/03/29 04:55:59;;;;;;;4.27;3.00;;;;;;;11.92;51.18;98945.06;7080515;28;20568;-77
2023/03/29 04:59:21;;;;;;;3.47;3.17;;;;;;;11.03;52.83;98936.72;7079587;28;20279;-76
2023/03/29 05:02:43;;;;;;;2.53;2.33;;;;;;;10.89;49.95;98937.72;7077401;28;20276;-77
2023/03/29 05:06:06;;;;;;;2.60;2.40;;;;;;;11.30;48.57;98933.84;7079172;28;20352;-76
2023/03/29 05:09:29;;;;;;;2.47;2.27;;;;;;;11.96;46.45;98923.84;7078340;28;20215;-75
2023/03/29 05:12:52;;;;;;;5.23;3.17;;;;;;;12.75;46.97;98933.38;7075769;28;20796;-76
2023/03/29 05:16:14;;;;;;;3.50;2.80;;;;;;;12.49;50.02;98936.16;7068851;28;20250;-76
2023/03/29 05:19:37;;;;;;;3.60;3.30;;;;;;;12.79;49.04;98927.31;7050696;28;20224;-76
2023/03/29 05:22:58;;;;;;;3.57;3.27;;;;;;;12.61;49.11;98932.59;7055700;28;20308;-77
2023/03/29 05:26:21;;;;;;;3.43;3.13;;;;;;;12.31;50.71;98936.88;7056488;28;20261;-77
2023/03/29 05:29:43;;;;;;;4.73;3.00;;;;;;;11.75;51.14;98921.41;7082838;27;20584;-77
2023/03/29 05:33:05;;;;;;;4.30;3.30;;;;;;;12.05;51.03;98931.53;7085039;27;20238;-77
2023/03/29 05:36:27;;;;;;;3.97;3.57;;;;;;;11.80;51.29;98927.03;7084954;27;20932;-77
2023/03/29 05:39:48;;;;;;;3.87;3.40;;;;;;;12.65;49.40;98931.13;7082817;27;20242;-78
2023/03/29 05:43:12;;;;;;;3.80;3.47;;;;;;;12.61;49.58;98924.47;7084539;27;20716;-78
2023/03/29 05:46:33;;;;;;;3.60;3.30;;;;;;;11.55;52.13;98925.94;7084767;27;20709;-76
2023/03/29 05:49:56;;;;;;;3.30;3.00;;;;;;;12.55;50.27;98916.38;7084081;27;20211;-76
2023/03/29 05:53:18;;;;;;;3.60;3.30;;;;;;;12.53;50.04;98910.38;7083986;27;20239;-76
2023/03/29 05:56:39;;;;;;;5.43;3.50;;;;;;;12.61;49.71;98929.06;7084552;27;20685;-76
2023/03/29 06:00:15;;;;;;;3.40;2.87;;;;;;;11.55;49.94;98934.88;7083748;27;20240;-76
2023/03/29 06:03:37;;;;;;;5.30;3.93;;;;;;;12.10;50.69;98923.63;7083660;27;20304;-77
2023/03/29 06:06:59;;;;;;;5.30;4.43;;;;;;;12.06;51.21;98930.50;7083725;27;20214;-77
2023/03/29 06:10:20;;;;;;;5.57;3.50;;;;;;;11.90;50.02;98925.53;7081690;27;20199;-77
2023/03/29 06:13:42;;;;;;;5.80;3.13;;;;;;;12.59;48.13;98928.44;7084236;27;20350;-80
2023/03/29 06:17:05;;;;;;;2.97;2.57;;;;;;;12.83;46.10;98931.25;7084050;27;20560;-78
2023/03/29 06:20:26;;;;;;;2.90;2.30;;;;;;;13.63;43.28;98930.53;7083552;27;20229;-77
2023/03/29 06:23:48;;;;;;;5.57;2.63;;;;;;;13.54;42.66;98873.06;7068698;27;20305;-80
2023/03/29 06:27:10;;;;;;;2.73;2.33;;;;;;;13.75;42.89;98934.16;7068782;27;20230;-77
2023/03/29 06:30:31;;;;;;;2.80;2.30;;;;;;;13.84;42.85;98930.09;7082017;27;20207;-76
2023/03/29 06:33:56;;;;;;;2.93;2.20;;;;;;;13.71;42.50;98939.19;7082682;27;20637;-78
2023/03/29 06:37:18;;;;;;;3.83;3.30;;;;;;;13.25;47.65;98927.06;7074999;27;20203;-77
2023/03/29 06:40:39;;;;;;;4.73;3.83;;;;;;;13.27;47.58;98947.44;7082213;27;20310;-76
2023/03/29 06:44:02;;;;;;;7.27;5.33;;;;;;;13.50;47.77;98949.56;7082318;27;20221;-76
2023/03/29 06:47:29;;;;;;;4.93;4.10;;;;;;;13.54;48.07;98948.09;7081985;27;20283;-76
2023/03/29 06:50:53;;;;;;;8.27;4.07;;;;;;;13.65;48.01;98955.50;7070450;27;20304;-75
2023/03/29 06:54:14;;;;;;;6.77;3.93;;;;;;;13.93;46.75;98945.03;7074334;27;20335;-76
2023/03/29 06:57:36;;;;;;;5.07;3.83;;;;;;;14.13;46.28;98948.38;7054270;28;20622;-77
2023/03/29 07:01:00;;;;;;;8.63;4.33;;;;;;;14.14;46.97;98950.03;7053369;28;20640;-76
2023/03/29 07:04:22;;;;;;;8.20;4.10;;;;;;;13.74;47.39;98973.97;7054054;28;20224;-76
2023/03/29 07:07:55;;;;;;;6.07;3.73;;;;;;;14.00;46.92;98967.50;7079804;27;20787;-76
2023/03/29 07:11:17;;;;;;;9.67;3.10;;;;;;;13.50;48.27;98985.63;7075338;27;20199;-77
2023/03/29 07:14:39;;;;;;;5.80;3.27;;;;;;;13.41;48.25;98976.13;7081992;27;20320;-77
2023/03/29 07:18:02;;;;;;;4.27;2.90;;;;;;;13.02;47.65;98970.94;7082140;27;20273;-76
2023/03/29 07:21:23;;;;;;;4.87;3.07;;;;;;;13.57;46.21;98980.16;7080669;27;20223;-77
2023/03/29 07:24:48;;;;;;;5.07;2.63;;;;;;;13.58;45.06;98981.81;7072798;27;20343;-76
2023/03/29 07:28:09;;;;;;;3.03;2.53;;;;;;;13.80;45.23;98980.41;7080408;27;20214;-78
2023/03/29 07:31:33;;;;;;;3.93;2.80;;;;;;;13.93;44.57;98986.50;7069863;27;20197;-75
2023/03/29 07:34:55;;;;;;;3.63;2.43;;;;;;;14.23;44.38;98992.13;7053281;27;20232;-76
2023/03/29 07:38:17;;;;;;;3.90;2.83;;;;;;;14.55;42.70;98971.94;7054149;28;20412;-76
2023/03/29 07:41:40;;;;;;;3.03;2.40;;;;;;;14.45;42.55;98972.47;7058817;27;20224;-76
2023/03/29 07:45:02;;;;;;;2.47;2.00;;;;;;;14.77;41.08;98965.00;7080776;27;20203;-76
2023/03/29 07:48:24;;;;;;;3.13;2.33;;;;;;;14.97;40.49;98979.97;7081497;27;20207;-75
2023/03/29 07:51:45;;;;;;;2.43;2.23;;;;;;;15.20;41.25;98982.81;7080109;27;20210;-76
2023/03/29 07:55:08;;;;;;;2.57;2.33;;;;;;;15.11;42.23;98991.50;7081106;27;20694;-76
2023/03/29 07:58:31;;;;;;;3.10;2.40;;;;;;;15.24;41.38;98983.16;7080936;27;20574;-75
2023/03/29 08:01:54;;;;;;;3.97;2.40;;;;;;;15.50;41.61;99008.09;7059766;27;20233;-76
2023/03/29 08:05:16;;;;;;;3.53;3.23;;;;;;;15.65;42.51;98999.53;7057414;27;20258;-76
2023/03/29 08:08:37;;;;;;;5.53;3.57;;;;;;;15.77;42.88;98998.50;7080811;27;20297;-76
2023/03/29 08:11:59;;;;;;;4.90;4.40;;;;;;;15.94;42.54;98999.47;7080406;27;20273;-76
2023/03/29 08:15:22;;;;;;;6.80;4.90;;;;;;;15.93;41.87;98989.63;7080835;27;20676;-76
2023/03/29 08:18:43;;;;;;;7.37;3.83;;;;;;;16.14;42.15;98985.53;7080059;27;20269;-75
2023/03/29 08:22:05;;;;;;;3.67;3.17;;;;;;;16.19;42.55;98994.66;7079532;27;20236;-76
2023/03/29 08:25:26;;;;;;;8.13;3.40;;;;;;;15.99;42.00;98977.00;7080029;27;20269;-76
2023/03/29 08:28:48;;;;;;;3.70;2.83;;;;;;;16.13;40.28;98995.59;7080399;27;20202;-76
2023/03/29 08:32:11;;;;;;;3.17;2.50;;;;;;;15.83;39.97;98981.25;7079364;27;20222;-77
2023/03/29 08:35:32;;;;;;;3.50;2.70;;;;;;;16.38;38.85;98979.88;7072142;27;20253;-76
2023/03/29 08:38:54;;;;;;;2.53;2.23;;;;;;;16.03;39.24;98994.50;7051036;28;20348;-76
2023/03/29 08:42:28;;;;;;;3.20;2.37;;;;;;;15.97;38.29;98993.56;7050326;28;20228;-76
2023/03/29 08:45:59;;;;;;;4.17;2.57;;;;;;;16.55;37.83;98980.81;7050842;28;20264;-76
2023/03/29 08:49:22;;;;;;;2.97;2.30;;;;;;;16.99;37.99;98987.47;7058622;27;20202;-77
2023/03/29 08:52:46;;;;;;;2.90;2.40;;;;;;;16.39;38.57;98986.16;7078150;28;20328;-78
2023/03/29 08:56:11;;;;;;;2.70;2.23;;;;;;;16.45;38.47;98980.56;7078684;27;20205;-78
2023/03/29 08:59:33;;;;;;;2.70;2.10;;;;;;;16.64;37.36;98982.09;7078695;28;20263;-78
2023/03/29 09:02:56;;;;;;;3.23;2.10;;;;;;;17.16;37.49;98974.75;7078903;28;20227;-77
2023/03/29 09:06:20;;;;;;;3.53;2.53;;;;;;;17.26;37.98;98974.91;7079773;28;20237;-76
2023/03/29 09:09:42;;;;;;;4.30;2.03;;;;;;;17.23;37.81;98970.78;7078943;28;20212;-78
2023/03/29 09:13:15;;;;;;;3.17;2.60;;;;;;;17.44;36.52;98963.84;7059147;27;20225;-78
2023/03/29 09:16:38;;;;;;;2.93;2.67;;;;;;;17.30;36.85;98965.19;7050696;28;20616;-78
2023/03/29 09:20:06;;;;;;;6.37;3.07;;;;;;;17.36;37.55;98975.13;7050222;28;20643;-80
2023/03/29 09:23:47;;;;;;;6.13;3.07;;;;;;;17.63;36.55;98955.19;7063229;28;20223;-78
2023/03/29 09:27:11;;;;;;;2.20;2.00;;;;;;;17.84;35.22;98970.00;7050924;28;20256;-77
2023/03/29 09:30:35;;;;;;;2.30;2.00;;;;;;;17.86;35.73;98973.34;7064625;28;20298;-76
2023/03/29 09:33:58;;;;;;;2.47;2.27;;;;;;;18.07;34.37;98964.38;7078575;28;20226;-76
2023/03/29 09:37:23;;;;;;;1.90;1.80;;;;;;;17.89;34.82;98960.03;7078884;28;20251;-77
2023/03/29 09:40:48;;;;;;;3.47;2.07;;;;;;;18.08;34.50;98953.22;7074655;27;20203;-77
2023/03/29 09:44:12;;;;;;;2.00;1.90;;;;;;;18.39;33.75;98946.34;7077527;28;20218;-77
2023/03/29 09:47:36;;;;;;;4.43;1.90;;;;;;;18.43;34.15;98937.41;7077056;28;20341;-78
2023/03/29 09:50:57;;;;;;;2.00;1.70;;;;;;;18.63;32.44;98918.53;7064623;28;20624;-78
2023/03/29 09:54:19;;;;;;;3.37;2.00;;;;;;;18.54;31.93;98919.25;7053606;28;20220;-78
2023/03/29 09:57:42;;;;;;;2.30;2.10;;;;;;;18.92;32.97;98925.47;7061487;28;20998;-78
2023/03/29 10:01:08;;;;;;;3.37;2.27;;;;;;;19.44;31.04;98929.34;7069153;28;20219;-77
2023/03/29 10:04:29;;;;;;;3.07;2.10;;;;;;;19.14;30.64;98928.16;7075201;28;20223;-81
2023/03/29 10:07:53;;;;;;;1.90;1.80;;;;;;;19.02;31.17;98909.19;7073668;27;20336;-76
2023/03/29 10:11:22;;;;;;;1.93;1.83;;;;;;;19.37;30.08;98922.44;7079520;27;20196;-78
2023/03/29 10:14:46;;;;;;;2.50;2.10;;;;;;;19.88;30.08;98917.13;7076926;27;20223;-78
2023/03/29 10:18:12;;;;;;;3.60;2.30;;;;;;;19.27;30.11;98922.34;7071019;27;20235;-78
2023/03/29 10:21:33;;;;;;;2.67;1.90;;;;;;;19.57;30.58;98914.44;7071225;27;20227;-78
2023/03/29 10:24:57;;;;;;;2.30;2.10;;;;;;;19.87;30.53;98925.63;7077173;27;20204;-78
2023/03/29 10:28:19;;;;;;;3.30;2.00;;;;;;;19.51;29.45;98918.22;7082714;27;20215;-76
2023/03/29 10:31:42;;;;;;;3.10;2.00;;;;;;;19.83;29.98;98911.66;7082098;27;20621;-77
2023/03/29 10:35:09;;;;;;;2.17;1.90;;;;;;;20.13;29.97;98922.84;7079223;27;20211;-83
2023/03/29 10:38:30;;;;;;;2.10;1.90;;;;;;;19.54;30.18;98912.22;7054758;28;20192;-76
2023/03/29 10:41:52;;;;;;;2.33;2.10;;;;;;;19.71;30.35;98923.84;7075815;27;20292;-78
2023/03/29 10:45:21;;;;;;;2.00;1.83;;;;;;;18.55;31.42;98913.53;7082117;27;20669;-76
2023/03/29 10:48:51;;;;;;;2.20;2.00;;;;;;;19.47;31.58;98908.88;7082733;27;20825;-76
2023/03/29 10:52:13;;;;;;;2.83;1.87;;;;;;;19.61;31.17;98899.13;7081165;27;20296;-76
2023/03/29 10:55:41;;;;;;;3.50;2.97;;;;;;;19.44;32.76;98901.16;7056755;27;20258;-76
2023/03/29 10:59:24;;;;;;;2.00;1.90;;;;;;;19.50;31.09;98890.03;7052099;28;20205;-76
2023/03/29 11:03:22;;;;;;;4.77;2.33;;;;;;;19.72;31.72;98885.28;7044658;27;20261;-76
2023/03/29 11:06:49;;;;;;;2.50;2.30;;;;;;;20.06;30.98;98888.53;7062628;27;20204;-77
2023/03/29 11:10:24;;;;;;;3.90;2.00;;;;;;;20.06;30.65;98902.22;7060130;27;20199;-77
2023/03/29 11:13:51;;;;;;;3.50;2.40;;;;;;;20.22;31.13;98893.06;7078289;27;20220;-75
2023/03/29 11:17:23;;;;;;;2.70;2.50;;;;;;;20.69;30.52;98877.44;7081587;27;20201;-76
2023/03/29 11:20:48;;;;;;;3.37;1.90;;;;;;;20.69;29.89;98869.22;7080706;27;20208;-76
2023/03/29 11:24:33;;;;;;;4.93;1.97;;;;;;;20.63;29.90;98865.59;7081645;27;20795;-76
2023/03/29 11:28:00;;;;;;;4.57;2.27;;;;;;;19.95;30.95;98860.28;7081712;27;20253;-77
2023/03/29 11:31:29;;;;;;;3.57;2.17;;;;;;;20.70;30.60;98860.69;7081136;27;20665;-76
2023/03/29 11:35:00;;;;;;;4.07;2.00;;;;;;;21.08;30.02;98859.47;7079435;27;20293;-77
2023/03/29 11:38:27;;;;;;;3.23;2.20;;;;;;;21.06;30.21;98856.19;7052868;28;20216;-76
2023/03/29 11:41:53;;;;;;;2.80;2.33;;;;;;;21.65;29.47;98847.19;7052049;28;20250;-76
2023/03/29 11:45:18;;;;;;;3.93;2.10;;;;;;;21.77;29.89;98842.28;7052332;28;20203;-76
2023/03/29 11:48:46;;;;;;;2.00;1.80;;;;;;;21.99;28.71;98840.88;7076133;27;20192;-78
2023/03/29 11:52:12;;;;;;;3.00;2.00;;;;;;;21.75;29.32;98842.56;7050736;27;20356;-76
2023/03/29 11:55:36;;;;;;;3.17;2.27;;;;;;;21.10;29.75;98827.13;7052425;28;20204;-77
2023/03/29 11:59:03;;;;;;;2.03;1.70;;;;;;;21.01;30.93;98836.97;7066739;27;20235;-76
2023/03/29 12:02:29;;;;;;;3.30;2.10;;;;;;;20.95;30.93;98835.31;7058885;27;20328;-78
2023/03/29 12:05:53;;;;;;;2.50;2.17;;;;;;;20.86;30.75;98835.00;7052898;28;20749;-79
2023/03/29 12:09:23;;;;;;;3.80;2.13;;;;;;;20.71;31.34;98831.38;7075506;27;20569;-78
2023/03/29 12:12:47;;;;;;;3.83;2.20;;;;;;;21.25;31.28;98814.25;7079699;27;20279;-76
2023/03/29 12:16:15;;;;;;;2.13;1.87;;;;;;;21.59;30.55;98810.69;7078397;27;20292;-80
2023/03/29 12:19:40;;;;;;;3.37;2.33;;;;;;;21.21;30.51;98813.16;7079921;27;20243;-78
2023/03/29 12:23:02;;;;;;;3.50;2.10;;;;;;;21.27;31.54;98811.25;7075568;27;20310;-77
2023/03/29 12:26:35;;;;;;;3.97;2.30;;;;;;;21.40;30.75;98798.63;7063102;27;20293;-78
2023/03/29 12:30:26;;;;;;;3.70;2.03;;;;;;;21.63;29.94;98789.00;7054453;28;20661;-78
2023/03/29 12:34:01;;;;;;;3.13;2.10;;;;;;;21.33;30.60;98797.25;7080143;27;20222;-79
2023/03/29 12:37:35;;;;;;;3.83;2.10;;;;;;;20.90;30.13;98764.88;7079706;27;20212;-77
2023/03/29 12:40:57;;;;;;;6.43;2.47;;;;;;;21.55;29.79;98778.59;7079335;27;20273;-77
2023/03/29 12:44:22;;;;;;;3.97;2.00;;;;;;;21.66;30.06;98780.22;7051702;28;20830;-77
2023/03/29 12:47:45;;;;;;;2.30;1.93;;;;;;;21.27;30.49;98760.78;7051504;28;20224;-77
2023/03/29 12:51:12;;;;;;;3.53;2.20;;;;;;;21.99;30.37;98774.13;7077496;27;20220;-78
2023/03/29 12:54:34;;;;;;;6.60;2.63;;;;;;;22.69;29.19;98774.69;7080946;28;20319;-78
2023/03/29 12:58:02;;;;;;;3.80;1.67;;;;;;;20.98;29.96;98769.81;7079886;28;20210;-78
2023/03/29 13:01:27;;;;;;;5.23;1.90;;;;;;;20.95;30.68;98788.72;7079071;28;20227;-78
2023/03/29 13:04:51;;;;;;;3.47;1.83;;;;;;;20.68;30.81;98786.16;7079434;28;20225;-79
2023/03/29 13:08:23;;;;;;;1.97;1.70;;;;;;;20.84;32.01;98783.19;7079133;28;20587;-79
2023/03/29 13:11:45;;;;;;;3.33;1.83;;;;;;;21.85;30.53;98762.94;7078918;28;20200;-79
2023/03/29 13:15:18;;;;;;;2.70;1.67;;;;;;;22.08;29.43;98775.22;7078480;28;20206;-78
2023/03/29 13:18:50;;;;;;;1.53;1.43;;;;;;;21.49;30.77;98799.72;7079670;28;20240;-78
2023/03/29 13:22:22;;;;;;;2.07;1.47;;;;;;;20.86;32.27;98784.84;7079223;28;20231;-77
2023/03/29 13:26:23;;;;;;;2.13;1.83;;;;;;;21.08;31.60;98805.47;7080089;28;20242;-79
2023/03/29 13:30:03;;;;;;;1.57;1.47;;;;;;;21.10;32.08;98819.72;6963641;28;20349;-78
2023/03/29 13:33:47;;;;;;;2.53;1.53;;;;;;;21.27;31.95;98814.81;6982400;28;20221;-81
2023/03/29 13:37:23;;;;;;;4.03;1.70;;;;;;;20.75;32.43;98810.59;7074352;28;20205;-78
2023/03/29 13:40:56;;;;;;;2.50;1.70;;;;;;;20.60;33.87;98824.22;7078328;27;20221;-78
2023/03/29 13:44:26;;;;;;;1.80;1.70;;;;;;;20.54;33.73;98825.28;7084684;27;20739;-75
2023/03/29 13:47:47;;;;;;;3.90;1.80;;;;;;;21.00;33.54;98822.47;7083770;27;20243;-78
2023/03/29 13:51:23;;;;;;;1.70;1.50;;;;;;;21.23;32.66;98814.53;7084089;27;20281;-78
2023/03/29 13:54:50;;;;;;;2.57;1.57;;;;;;;21.50;31.28;98814.25;7083634;27;20774;-81
2023/03/29 13:58:17;;;;;;;2.63;1.90;;;;;;;21.12;32.37;98814.81;7083910;27;20210;-76
2023/03/29 14:01:42;;;;;;;1.73;1.37;;;;;;;21.30;32.19;98804.09;7090834;27;20240;-79
2023/03/29 14:05:05;;;;;;;2.37;1.60;;;;;;;21.53;32.37;98802.75;7087333;27;20662;-78
2023/03/29 14:08:29;;;;;;;2.17;1.50;;;;;;;21.55;32.64;98817.00;7086626;27;20357;-77
2023/03/29 14:11:51;;;;;;;2.40;1.70;;;;;;;20.80;33.59;98827.03;7088553;27;20337;-80
2023/03/29 14:15:22;;;;;;;2.70;1.80;;;;;;;20.35;35.74;98832.34;7085698;27;20219;-80
2023/03/29 14:18:46;;;;;;;1.63;1.53;;;;;;;20.05;38.87;98832.16;7087141;27;20245;-79
2023/03/29 14:22:09;;;;;;;2.50;2.20;;;;;;;19.74;40.14;98844.00;7088248;27;20231;-77
2023/03/29 14:25:31;;;;;;;2.03;1.67;;;;;;;19.73;40.61;98858.75;7088847;27;20203;-78
2023/03/29 14:28:55;;;;;;;2.37;1.60;;;;;;;19.26;41.29;98860.53;7087608;27;20208;-78
2023/03/29 14:32:19;;;;;;;2.73;2.00;;;;;;;18.71;43.45;98822.53;7088657;27;20231;-80
2023/03/29 14:35:41;;;;;;;2.67;2.10;;;;;;;19.17;43.71;98845.66;7087290;27;20218;-79
2023/03/29 14:39:05;;;;;;;3.33;2.40;;;;;;;19.13;46.15;98837.16;7089380;27;20226;-79
2023/03/29 14:42:27;;;;;;;2.67;1.97;;;;;;;19.15;47.03;98807.66;7084516;27;20288;-78
2023/03/29 14:45:50;;;;;;;2.23;2.00;;;;;;;19.39;47.45;98832.78;7087228;27;20204;-80
2023/03/29 14:49:15;;;;;;;2.47;2.00;;;;;;;19.17;46.11;98824.59;7084259;27;20259;-80
2023/03/29 14:52:36;;;;;;;4.43;2.10;;;;;;;19.47;45.97;98819.47;7065197;27;20229;-80
2023/03/29 14:55:58;;;;;;;3.13;1.70;;;;;;;19.48;45.53;98809.31;7058793;28;20200;-79
2023/03/29 14:59:35;;;;;;;2.50;2.23;;;;;;;19.33;44.74;98807.28;7057901;28;20578;-78
2023/03/29 15:02:59;;;;;;;2.40;1.80;;;;;;;19.71;44.16;98798.84;7059323;28;20389;-80
2023/03/29 15:06:22;;;;;;;2.57;1.90;;;;;;;19.87;43.75;98791.56;7058885;28;20350;-79
2023/03/29 15:09:45;;;;;;;2.00;1.80;;;;;;;20.09;43.56;98771.16;7064157;27;20658;-77
2023/03/29 15:13:07;;;;;;;3.43;1.97;;;;;;;20.20;42.50;98785.72;7056622;27;20324;-77
2023/03/29 15:16:30;;;;;;;3.70;2.17;;;;;;;19.58;43.93;98771.91;7054950;27;20273;-77
2023/03/29 15:19:51;;;;;;;2.30;2.10;;;;;;;19.53;43.83;98750.03;7065139;27;20763;-77
2023/03/29 15:23:23;;;;;;;3.43;2.17;;;;;;;19.95;43.20;98759.03;7068844;27;20220;-78
2023/03/29 15:26:45;;;;;;;2.27;1.93;;;;;;;20.46;42.21;98746.41;7079191;27;20692;-78
2023/03/29 15:30:12;;;;;;;3.37;2.00;;;;;;;20.58;41.80;98749.72;7081011;27;20203;-78
2023/03/29 15:33:35;;;;;;;2.10;1.90;;;;;;;20.55;41.85;98740.13;7081175;27;20220;-77
2023/03/29 15:36:57;;;;;;;3.00;1.90;;;;;;;20.51;42.07;98738.19;7080978;27;20201;-78
2023/03/29 15:40:23;;;;;;;2.27;1.73;;;;;;;20.77;40.77;98727.00;7081012;27;20204;-77
2023/03/29 15:43:45;;;;;;;2.77;1.90;;;;;;;20.59;41.52;98722.06;7077048;27;20280;-78
2023/03/29 15:47:09;;;;;;;3.00;1.80;;;;;;;20.67;41.17;98708.59;7079104;27;20197;-77
2023/03/29 15:50:31;;;;;;;4.37;2.03;;;;;;;20.59;41.82;98716.56;7080578;27;20279;-77
2023/03/29 15:53:53;;;;;;;4.43;2.13;;;;;;;20.71;41.52;98719.03;7081218;27;20249;-77
2023/03/29 15:57:15;;;;;;;1.73;1.60;;;;;;;20.78;41.08;98699.31;7080767;27;20208;-77
2023/03/29 16:00:39;;;;;;;2.20;2.00;;;;;;;20.78;40.75;98706.72;7080314;27;20259;-80
2023/03/29 16:04:01;;;;;;;4.90;1.80;;;;;;;20.98;40.43;98704.00;7077288;27;20228;-77